createdAt,value
2017-11-07T00:00:55.581Z,84.91
2017-11-07T00:02:02.106Z,85.06
2017-11-07T00:03:07.870Z,85.04
2017-11-07T00:04:13.625Z,84.88
2017-11-07T00:05:19.989Z,84.78
2017-11-07T00:06:26.514Z,84.74
2017-11-07T00:07:32.264Z,84.75
2017-11-07T00:08:38.064Z,84.53
2017-11-07T00:09:43.916Z,84.56
2017-11-07T00:10:49.700Z,84.52
2017-11-07T00:11:55.269Z,84.57
2017-11-07T00:13:00.819Z,84.75
2017-11-07T00:14:06.397Z,84.80
2017-11-07T00:15:12.200Z,84.93
2017-11-07T00:16:17.809Z,84.81
2017-11-07T00:17:24.133Z,84.93
2017-11-07T00:18:29.892Z,84.96
2017-11-07T00:19:35.720Z,84.98
2017-11-07T00:20:41.493Z,84.99
2017-11-07T00:21:48.047Z,84.91
2017-11-07T00:22:53.804Z,84.88
2017-11-07T00:23:59.556Z,84.96
2017-11-07T00:25:05.307Z,84.95
2017-11-07T00:26:11.067Z,84.70
2017-11-07T00:27:16.877Z,84.80
2017-11-07T00:28:22.657Z,84.78
2017-11-07T00:29:28.418Z,84.62
2017-11-07T00:30:34.207Z,84.29
2017-11-07T00:31:39.953Z,84.34
2017-11-07T00:32:45.741Z,84.32
2017-11-07T00:33:51.295Z,84.22
2017-11-07T00:34:57.621Z,84.33
2017-11-07T00:36:03.381Z,84.29
2017-11-07T00:37:09.140Z,84.14
2017-11-07T00:38:15.690Z,84.19
2017-11-07T00:39:22.208Z,84.17
2017-11-07T00:40:27.965Z,84.13
2017-11-07T00:41:33.713Z,83.94
2017-11-07T00:42:39.493Z,83.84
2017-11-07T00:43:46.028Z,84.31
2017-11-07T00:44:51.780Z,84.27
2017-11-07T00:45:58.313Z,84.23
2017-11-07T00:47:03.877Z,84.16
2017-11-07T00:48:10.468Z,84.50
2017-11-07T00:49:16.241Z,84.56
2017-11-07T00:50:21.998Z,84.61
2017-11-07T00:51:27.751Z,84.67
2017-11-07T00:52:33.300Z,84.75
2017-11-07T00:53:39.821Z,84.76
2017-11-07T00:54:45.600Z,84.85
2017-11-07T00:55:51.317Z,84.87
2017-11-07T00:56:57.073Z,84.81
2017-11-07T00:58:02.845Z,84.83
2017-11-07T00:59:09.005Z,84.97
2017-11-07T01:00:14.780Z,85.04
2017-11-07T01:01:20.534Z,85.23
2017-11-07T01:02:26.296Z,85.40
2017-11-07T01:03:32.819Z,85.61
2017-11-07T01:04:38.632Z,85.70
2017-11-07T01:05:44.425Z,85.67
2017-11-07T01:06:50.181Z,85.66
2017-11-07T01:07:56.705Z,85.56
2017-11-07T01:09:02.467Z,85.52
2017-11-07T01:10:08.223Z,85.52
2017-11-07T01:11:14.781Z,85.43
2017-11-07T01:12:21.305Z,85.37
2017-11-07T01:13:27.053Z,85.44
2017-11-07T01:14:32.798Z,85.35
2017-11-07T01:15:38.562Z,85.13
2017-11-07T01:16:44.127Z,85.07
2017-11-07T01:17:50.641Z,85.22
2017-11-07T01:18:56.416Z,85.00
2017-11-07T01:20:02.946Z,84.89
2017-11-07T01:21:08.695Z,84.68
2017-11-07T01:22:14.478Z,84.63
2017-11-07T01:23:20.232Z,84.52
2017-11-07T01:24:25.984Z,84.54
2017-11-07T01:25:31.533Z,84.51
2017-11-07T01:26:37.343Z,84.39
2017-11-07T01:27:43.117Z,84.09
2017-11-07T01:28:48.872Z,83.95
2017-11-07T01:29:54.278Z,83.80
2017-11-07T01:30:59.690Z,83.65
2017-11-07T01:32:05.440Z,83.48
2017-11-07T01:33:11.208Z,83.42
2017-11-07T01:34:16.751Z,83.39
2017-11-07T01:35:22.505Z,83.32
2017-11-07T01:36:28.264Z,83.30
2017-11-07T01:37:34.033Z,83.34
2017-11-07T01:38:39.816Z,83.24
2017-11-07T01:39:45.582Z,83.20
2017-11-07T01:40:51.078Z,83.26
2017-11-07T01:41:56.854Z,82.89
2017-11-07T01:43:02.289Z,82.97
2017-11-07T01:44:08.057Z,82.82
2017-11-07T01:45:14.077Z,82.72
2017-11-07T01:46:19.830Z,82.62
2017-11-07T01:47:25.584Z,82.47
2017-11-07T01:48:32.103Z,82.44
2017-11-07T01:49:37.892Z,82.94
2017-11-07T01:50:44.409Z,82.86
2017-11-07T01:51:50.163Z,82.77
2017-11-07T01:52:55.904Z,82.73
2017-11-07T01:54:01.652Z,82.60
2017-11-07T01:55:08.197Z,82.57
2017-11-07T01:56:13.604Z,82.60
2017-11-07T01:57:19.349Z,82.61
2017-11-07T01:58:24.918Z,82.59
2017-11-07T01:59:30.677Z,82.53
2017-11-07T02:00:37.758Z,82.40
2017-11-07T02:01:44.264Z,82.38
2017-11-07T02:02:50.017Z,82.44
2017-11-07T02:03:55.824Z,82.54
2017-11-07T02:05:01.585Z,82.31
2017-11-07T02:06:07.401Z,81.93
2017-11-07T02:07:13.161Z,81.98
2017-11-07T02:08:18.925Z,82.09
2017-11-07T02:09:24.678Z,82.60
2017-11-07T02:10:30.292Z,82.59
2017-11-07T02:11:36.080Z,82.47
2017-11-07T02:12:42.616Z,82.38
2017-11-07T02:13:48.363Z,82.11
2017-11-07T02:14:54.123Z,81.93
2017-11-07T02:16:00.665Z,81.45
2017-11-07T02:17:07.223Z,81.23
2017-11-07T02:18:12.984Z,81.26
2017-11-07T02:19:18.810Z,81.16
2017-11-07T02:20:24.566Z,81.07
2017-11-07T02:21:29.968Z,81.19
2017-11-07T02:22:35.067Z,81.43
2017-11-07T02:23:40.480Z,81.53
2017-11-07T02:24:46.235Z,81.61
2017-11-07T02:25:51.285Z,81.66
2017-11-07T02:26:56.692Z,81.59
2017-11-07T02:28:02.468Z,81.43
2017-11-07T02:29:07.529Z,81.72
2017-11-07T02:30:13.366Z,82.08
2017-11-07T02:31:18.774Z,82.03
2017-11-07T02:32:24.762Z,82.35
2017-11-07T02:33:31.336Z,82.27
2017-11-07T02:34:36.560Z,82.19
2017-11-07T02:35:43.076Z,82.25
2017-11-07T02:36:48.818Z,82.21
2017-11-07T02:37:53.880Z,82.40
2017-11-07T02:38:59.660Z,82.60
2017-11-07T02:40:04.493Z,82.67
2017-11-07T02:41:10.266Z,82.56
2017-11-07T02:42:16.464Z,82.54
2017-11-07T02:43:22.973Z,82.55
2017-11-07T02:44:28.769Z,82.67
2017-11-07T02:45:34.507Z,82.48
2017-11-07T02:46:41.021Z,82.63
2017-11-07T02:47:47.193Z,82.69
2017-11-07T02:48:52.956Z,82.66
2017-11-07T02:49:58.725Z,82.51
2017-11-07T02:51:04.493Z,82.50
2017-11-07T02:52:10.220Z,82.67
2017-11-07T02:53:15.982Z,82.67
2017-11-07T02:54:22.507Z,82.66
2017-11-07T02:55:28.284Z,82.50
2017-11-07T02:56:34.801Z,82.42
2017-11-07T02:57:40.557Z,82.56
2017-11-07T02:58:46.308Z,82.59
2017-11-07T02:59:51.714Z,82.62
2017-11-07T03:00:57.497Z,82.73
2017-11-07T03:02:03.268Z,82.85
2017-11-07T03:03:09.024Z,83.09
2017-11-07T03:04:14.769Z,83.11
2017-11-07T03:05:20.517Z,83.04
2017-11-07T03:06:26.291Z,82.97
2017-11-07T03:07:32.048Z,82.70
2017-11-07T03:08:38.561Z,82.53
2017-11-07T03:09:44.465Z,82.72
2017-11-07T03:10:51.057Z,83.09
2017-11-07T03:11:57.006Z,82.90
2017-11-07T03:13:02.845Z,82.68
2017-11-07T03:14:08.672Z,82.59
2017-11-07T03:15:15.180Z,82.53
2017-11-07T03:16:20.925Z,82.46
2017-11-07T03:17:26.716Z,82.76
2017-11-07T03:18:32.473Z,83.03
2017-11-07T03:19:38.225Z,83.18
2017-11-07T03:20:43.984Z,83.17
2017-11-07T03:21:49.727Z,83.27
2017-11-07T03:22:55.320Z,83.15
2017-11-07T03:24:01.073Z,82.91
2017-11-07T03:25:06.825Z,83.46
2017-11-07T03:26:12.568Z,83.38
2017-11-07T03:27:18.324Z,83.51
2017-11-07T03:28:24.099Z,83.75
2017-11-07T03:29:30.624Z,83.76
2017-11-07T03:30:36.369Z,83.95
2017-11-07T03:31:41.914Z,83.95
2017-11-07T03:32:47.682Z,84.33
2017-11-07T03:33:54.228Z,84.19
2017-11-07T03:34:59.976Z,84.02
2017-11-07T03:36:06.508Z,83.82
2017-11-07T03:37:12.257Z,83.52
2017-11-07T03:38:18.019Z,83.67
2017-11-07T03:39:23.793Z,83.64
2017-11-07T03:40:29.540Z,83.26
2017-11-07T03:41:35.275Z,83.15
2017-11-07T03:42:41.044Z,83.06
2017-11-07T03:43:46.788Z,83.35
2017-11-07T03:44:52.572Z,83.50
2017-11-07T03:45:58.320Z,83.50
2017-11-07T03:47:04.847Z,83.61
2017-11-07T03:48:10.600Z,83.52
2017-11-07T03:49:17.851Z,83.53
2017-11-07T03:50:23.641Z,83.36
2017-11-07T03:51:30.162Z,83.26
2017-11-07T03:52:35.916Z,83.25
2017-11-07T03:53:41.684Z,83.17
2017-11-07T03:54:47.430Z,82.99
2017-11-07T03:55:53.719Z,83.01
2017-11-07T03:56:59.480Z,83.18
2017-11-07T03:58:06.004Z,83.32
2017-11-07T03:59:12.239Z,83.42
2017-11-07T04:00:17.998Z,83.44
2017-11-07T04:01:23.777Z,83.56
2017-11-07T04:02:29.541Z,83.39
2017-11-07T04:03:35.294Z,83.33
2017-11-07T04:04:42.089Z,83.35
2017-11-07T04:05:47.834Z,83.38
2017-11-07T04:06:53.617Z,83.39
2017-11-07T04:08:00.669Z,83.48
2017-11-07T04:09:05.741Z,83.53
2017-11-07T04:10:12.522Z,83.71
2017-11-07T04:11:18.277Z,84.00
2017-11-07T04:12:24.064Z,83.84
2017-11-07T04:13:29.909Z,83.73
2017-11-07T04:14:35.661Z,83.67
2017-11-07T04:15:42.197Z,83.67
2017-11-07T04:16:47.970Z,83.67
2017-11-07T04:17:54.523Z,83.64
2017-11-07T04:19:00.285Z,83.47
2017-11-07T04:20:06.061Z,83.38
2017-11-07T04:21:11.821Z,83.18
2017-11-07T04:22:17.572Z,83.29
2017-11-07T04:23:23.353Z,83.57
2017-11-07T04:24:29.120Z,83.51
2017-11-07T04:25:34.883Z,83.76
2017-11-07T04:26:40.648Z,84.05
2017-11-07T04:27:46.658Z,84.12
2017-11-07T04:28:52.428Z,84.08
2017-11-07T04:29:58.188Z,84.02
2017-11-07T04:31:05.437Z,83.92
2017-11-07T04:32:11.205Z,83.90
2017-11-07T04:33:16.954Z,83.48
2017-11-07T04:34:23.508Z,83.36
2017-11-07T04:35:30.036Z,83.17
2017-11-07T04:36:35.792Z,83.61
2017-11-07T04:37:41.223Z,83.50
2017-11-07T04:38:47.020Z,83.39
2017-11-07T04:39:52.794Z,83.31
2017-11-07T04:40:58.545Z,83.15
2017-11-07T04:42:04.056Z,82.99
2017-11-07T04:43:09.884Z,82.77
2017-11-07T04:44:15.625Z,82.93
2017-11-07T04:45:21.657Z,82.88
2017-11-07T04:46:27.424Z,82.91
2017-11-07T04:47:33.185Z,82.87
2017-11-07T04:48:38.928Z,82.86
2017-11-07T04:49:44.685Z,82.75
2017-11-07T04:50:50.465Z,82.88
2017-11-07T04:51:56.218Z,82.73
2017-11-07T04:53:01.978Z,82.79
2017-11-07T04:54:07.731Z,82.39
2017-11-07T04:55:13.477Z,82.20
2017-11-07T04:56:19.252Z,82.58
2017-11-07T04:57:25.777Z,82.50
2017-11-07T04:58:31.527Z,82.42
2017-11-07T04:59:37.317Z,82.40
2017-11-07T05:00:43.854Z,82.24
2017-11-07T05:01:50.397Z,82.29
2017-11-07T05:02:56.260Z,82.33
2017-11-07T05:04:02.773Z,82.23
2017-11-07T05:05:08.530Z,82.07
2017-11-07T05:06:14.460Z,81.98
2017-11-07T05:07:20.265Z,81.83
2017-11-07T05:08:26.772Z,81.67
2017-11-07T05:09:32.541Z,81.83
2017-11-07T05:10:38.308Z,81.60
2017-11-07T05:11:44.062Z,81.55
2017-11-07T05:12:49.848Z,81.51
2017-11-07T05:13:55.621Z,81.39
2017-11-07T05:15:02.147Z,81.35
2017-11-07T05:16:07.717Z,81.52
2017-11-07T05:17:14.232Z,81.43
2017-11-07T05:18:20.020Z,81.25
2017-11-07T05:19:26.764Z,81.33
2017-11-07T05:20:32.512Z,81.39
2017-11-07T05:21:38.300Z,81.37
2017-11-07T05:22:44.073Z,81.23
2017-11-07T05:23:49.849Z,81.31
2017-11-07T05:24:56.364Z,81.44
2017-11-07T05:26:02.109Z,82.04
2017-11-07T05:27:07.865Z,81.71
2017-11-07T05:28:13.621Z,81.78
2017-11-07T05:29:19.201Z,81.58
2017-11-07T05:30:24.953Z,81.45
2017-11-07T05:31:30.982Z,81.63
2017-11-07T05:32:36.742Z,81.74
2017-11-07T05:33:42.505Z,82.04
2017-11-07T05:34:48.288Z,82.36
2017-11-07T05:35:54.900Z,82.25
2017-11-07T05:37:00.657Z,82.15
2017-11-07T05:38:06.404Z,82.18
2017-11-07T05:39:12.232Z,82.22
2017-11-07T05:40:18.004Z,82.43
2017-11-07T05:41:23.789Z,82.51
2017-11-07T05:42:29.558Z,82.49
2017-11-07T05:43:35.352Z,82.55
2017-11-07T05:44:41.861Z,82.37
2017-11-07T05:45:47.295Z,82.34
2017-11-07T05:46:52.696Z,82.34
2017-11-07T05:47:58.108Z,82.19
2017-11-07T05:49:04.690Z,82.05
2017-11-07T05:50:10.096Z,82.03
2017-11-07T05:51:15.949Z,81.85
2017-11-07T05:52:22.424Z,81.76
2017-11-07T05:53:28.323Z,81.43
2017-11-07T05:54:34.084Z,81.59
2017-11-07T05:55:40.606Z,81.47
2017-11-07T05:56:46.397Z,81.45
2017-11-07T05:57:52.571Z,81.69
2017-11-07T05:58:58.341Z,81.79
2017-11-07T06:00:03.674Z,81.78
2017-11-07T06:01:09.697Z,81.57
2017-11-07T06:02:15.481Z,81.71
2017-11-07T06:03:21.270Z,81.68
2017-11-07T06:04:28.796Z,81.46
2017-11-07T06:05:34.541Z,81.33
2017-11-07T06:06:40.305Z,81.78
2017-11-07T06:07:46.854Z,81.74
2017-11-07T06:08:52.598Z,81.59
2017-11-07T06:09:59.124Z,81.53
2017-11-07T06:11:04.881Z,81.38
2017-11-07T06:12:10.632Z,81.42
2017-11-07T06:13:17.191Z,81.39
2017-11-07T06:14:22.941Z,81.18
2017-11-07T06:15:29.256Z,81.36
2017-11-07T06:16:35.768Z,81.32
2017-11-07T06:17:42.297Z,81.43
2017-11-07T06:18:48.061Z,81.49
2017-11-07T06:19:54.582Z,81.49
2017-11-07T06:21:00.154Z,81.52
2017-11-07T06:22:05.918Z,81.36
2017-11-07T06:23:12.432Z,81.38
2017-11-07T06:24:18.038Z,81.03
2017-11-07T06:25:24.078Z,80.72
2017-11-07T06:26:29.821Z,80.58
2017-11-07T06:27:35.584Z,80.68
2017-11-07T06:28:41.138Z,80.60
2017-11-07T06:29:46.939Z,80.60
2017-11-07T06:30:52.553Z,80.66
2017-11-07T06:31:59.069Z,80.78
2017-11-07T06:33:04.270Z,80.71
2017-11-07T06:34:10.030Z,80.68
2017-11-07T06:35:15.816Z,80.50
2017-11-07T06:36:22.152Z,80.40
2017-11-07T06:37:27.900Z,80.31
2017-11-07T06:38:34.432Z,80.17
2017-11-07T06:39:40.187Z,80.03
2017-11-07T06:40:45.968Z,79.95
2017-11-07T06:41:52.496Z,79.69
2017-11-07T06:42:58.262Z,79.86
2017-11-07T06:44:04.443Z,79.75
2017-11-07T06:45:09.847Z,79.71
2017-11-07T06:46:15.620Z,79.78
2017-11-07T06:47:21.373Z,79.82
2017-11-07T06:48:27.401Z,80.08
2017-11-07T06:49:33.155Z,79.99
2017-11-07T06:50:39.029Z,80.16
2017-11-07T06:51:44.805Z,80.12
2017-11-07T06:52:51.350Z,79.92
2017-11-07T06:53:57.098Z,79.98
2017-11-07T06:55:02.859Z,79.93
2017-11-07T06:56:09.380Z,79.89
2017-11-07T06:57:15.262Z,79.82
2017-11-07T06:58:21.891Z,80.21
2017-11-07T06:59:27.684Z,80.26
2017-11-07T07:00:33.936Z,80.32
2017-11-07T07:01:39.760Z,80.35
2017-11-07T07:02:46.460Z,80.33
2017-11-07T07:03:53.356Z,80.37
2017-11-07T07:04:59.256Z,80.15
2017-11-07T07:06:05.013Z,79.97
2017-11-07T07:07:10.775Z,79.87
2017-11-07T07:08:16.628Z,79.69
2017-11-07T07:09:22.793Z,79.50
2017-11-07T07:10:28.651Z,79.76
2017-11-07T07:11:35.564Z,79.66
2017-11-07T07:12:41.593Z,79.40
2017-11-07T07:13:47.393Z,79.23
2017-11-07T07:14:53.145Z,79.18
2017-11-07T07:15:59.669Z,79.23
2017-11-07T07:17:05.437Z,79.41
2017-11-07T07:18:12.703Z,79.40
2017-11-07T07:19:18.802Z,79.55
2017-11-07T07:20:24.574Z,79.86
2017-11-07T07:21:30.325Z,79.71
2017-11-07T07:22:36.266Z,79.52
2017-11-07T07:23:42.022Z,79.55
2017-11-07T07:24:47.855Z,79.41
2017-11-07T07:25:53.602Z,79.39
2017-11-07T07:26:59.149Z,79.69
2017-11-07T07:28:04.920Z,79.56
2017-11-07T07:29:11.445Z,79.33
2017-11-07T07:30:17.214Z,79.30
2017-11-07T07:31:23.740Z,79.76
2017-11-07T07:32:29.500Z,79.98
2017-11-07T07:33:35.481Z,79.64
2017-11-07T07:34:41.240Z,79.41
2017-11-07T07:35:47.050Z,79.33
2017-11-07T07:36:53.223Z,79.34
2017-11-07T07:37:58.970Z,79.48
2017-11-07T07:39:04.297Z,79.68
2017-11-07T07:40:10.143Z,79.50
2017-11-07T07:41:15.924Z,79.62
2017-11-07T07:42:22.593Z,79.68
2017-11-07T07:43:28.695Z,79.64
2017-11-07T07:44:34.452Z,79.79
2017-11-07T07:45:40.214Z,79.37
2017-11-07T07:46:45.995Z,79.30
2017-11-07T07:47:52.528Z,79.45
2017-11-07T07:48:58.318Z,79.48
2017-11-07T07:50:03.813Z,79.58
2017-11-07T07:51:09.597Z,79.60
2017-11-07T07:52:15.442Z,79.94
2017-11-07T07:53:21.255Z,79.89
2017-11-07T07:54:27.764Z,79.50
2017-11-07T07:55:33.517Z,79.47
2017-11-07T07:56:39.299Z,79.34
2017-11-07T07:57:45.853Z,79.58
2017-11-07T07:58:51.645Z,79.29
2017-11-07T07:59:57.406Z,79.11
2017-11-07T08:01:03.164Z,79.16
2017-11-07T08:02:08.920Z,79.24
2017-11-07T08:03:15.486Z,79.26
2017-11-07T08:04:22.010Z,79.64
2017-11-07T08:05:27.088Z,79.76
2017-11-07T08:06:33.220Z,79.67
2017-11-07T08:07:40.496Z,79.58
2017-11-07T08:08:46.101Z,79.40
2017-11-07T08:09:51.857Z,79.61
2017-11-07T08:10:57.362Z,79.44
2017-11-07T08:12:02.768Z,79.22
2017-11-07T08:13:08.571Z,79.09
2017-11-07T08:14:15.759Z,79.02
2017-11-07T08:15:22.120Z,79.04
2017-11-07T08:16:27.933Z,78.87
2017-11-07T08:17:33.727Z,78.62
2017-11-07T08:18:40.529Z,78.41
2017-11-07T08:19:46.389Z,78.57
2017-11-07T08:20:52.150Z,78.90
2017-11-07T08:21:58.668Z,79.16
2017-11-07T08:23:04.440Z,79.17
2017-11-07T08:24:10.202Z,78.96
2017-11-07T08:25:16.995Z,78.84
2017-11-07T08:26:23.247Z,78.71
2017-11-07T08:27:29.475Z,78.57
2017-11-07T08:28:36.365Z,78.65
2017-11-07T08:29:42.393Z,78.33
2017-11-07T08:30:49.042Z,78.27
2017-11-07T08:31:55.738Z,78.21
2017-11-07T08:33:01.736Z,78.19
2017-11-07T08:34:07.532Z,78.32
2017-11-07T08:35:13.585Z,78.03
2017-11-07T08:36:19.591Z,77.92
2017-11-07T08:37:26.286Z,78.08
2017-11-07T08:38:32.336Z,78.02
2017-11-07T08:39:38.188Z,78.43
2017-11-07T08:40:43.946Z,78.71
2017-11-07T08:41:49.726Z,78.80
2017-11-07T08:42:55.712Z,78.83
2017-11-07T08:44:01.553Z,78.78
2017-11-07T08:45:07.462Z,78.88
2017-11-07T08:46:14.084Z,79.00
2017-11-07T08:47:20.010Z,79.42
2017-11-07T08:48:25.650Z,79.16
2017-11-07T08:49:31.426Z,78.98
2017-11-07T08:50:37.370Z,79.06
2017-11-07T08:51:43.220Z,79.21
2017-11-07T08:52:49.325Z,79.22
2017-11-07T08:53:55.361Z,79.22
2017-11-07T08:55:02.120Z,78.96
2017-11-07T08:56:08.089Z,79.11
2017-11-07T08:57:13.957Z,78.92
2017-11-07T08:58:20.078Z,78.79
2017-11-07T08:59:26.332Z,78.80
2017-11-07T09:00:32.312Z,78.92
2017-11-07T09:01:38.633Z,78.96
2017-11-07T09:02:44.478Z,78.91
2017-11-07T09:03:50.302Z,78.78
2017-11-07T09:04:56.860Z,78.70
2017-11-07T09:06:03.495Z,78.71
2017-11-07T09:07:09.456Z,78.74
2017-11-07T09:08:16.077Z,78.59
2017-11-07T09:09:21.634Z,78.48
2017-11-07T09:10:27.676Z,78.49
2017-11-07T09:11:33.621Z,78.61
2017-11-07T09:12:41.254Z,78.54
2017-11-07T09:13:47.056Z,78.67
2017-11-07T09:14:53.032Z,78.50
2017-11-07T09:15:59.178Z,78.36
2017-11-07T09:17:05.868Z,78.21
2017-11-07T09:18:11.781Z,78.62
2017-11-07T09:19:19.280Z,78.39
2017-11-07T09:20:26.378Z,78.11
2017-11-07T09:21:32.412Z,78.09
2017-11-07T09:22:38.238Z,78.15
2017-11-07T09:23:44.781Z,78.06
2017-11-07T09:24:51.098Z,78.15
2017-11-07T09:25:56.873Z,78.01
2017-11-07T09:27:02.723Z,78.01
2017-11-07T09:28:08.597Z,77.97
2017-11-07T09:29:14.608Z,77.99
2017-11-07T09:30:20.361Z,77.87
2017-11-07T09:31:26.545Z,77.76
2017-11-07T09:32:32.297Z,77.68
2017-11-07T09:33:38.325Z,77.96
2017-11-07T09:34:44.895Z,77.91
2017-11-07T09:35:50.661Z,77.99
2017-11-07T09:36:56.482Z,78.13
2017-11-07T09:38:02.424Z,78.16
2017-11-07T09:39:08.272Z,78.33
2017-11-07T09:40:14.180Z,78.10
2017-11-07T09:41:20.040Z,78.04
2017-11-07T09:42:26.686Z,78.14
2017-11-07T09:43:33.493Z,78.03
2017-11-07T09:44:40.318Z,78.04
2017-11-07T09:45:46.718Z,78.09
2017-11-07T09:46:52.540Z,78.19
2017-11-07T09:47:59.142Z,78.27
2017-11-07T09:49:05.008Z,78.20
2017-11-07T09:50:10.903Z,78.13
2017-11-07T09:51:16.814Z,78.27
2017-11-07T09:52:23.641Z,78.45
2017-11-07T09:53:29.420Z,78.59
2017-11-07T09:54:35.942Z,78.92
2017-11-07T09:55:41.759Z,78.92
2017-11-07T09:56:47.502Z,78.89
2017-11-07T09:57:53.345Z,78.82
2017-11-07T09:58:59.129Z,78.90
2017-11-07T10:00:05.034Z,78.75
2017-11-07T10:01:10.796Z,78.49
2017-11-07T10:02:16.816Z,78.58
2017-11-07T10:03:23.138Z,78.56
2017-11-07T10:04:29.273Z,78.47
2017-11-07T10:05:36.284Z,78.53
2017-11-07T10:06:42.101Z,78.54
2017-11-07T10:07:47.878Z,78.24
2017-11-07T10:08:53.661Z,78.02
2017-11-07T10:09:59.280Z,77.92
2017-11-07T10:11:05.134Z,77.99
2017-11-07T10:12:10.897Z,78.04
2017-11-07T10:13:16.669Z,77.86
2017-11-07T10:14:23.372Z,78.00
2017-11-07T10:15:29.193Z,78.15
2017-11-07T10:16:34.762Z,78.03
2017-11-07T10:17:39.829Z,78.02
2017-11-07T10:18:45.638Z,78.02
2017-11-07T10:19:51.462Z,78.18
2017-11-07T10:20:57.514Z,78.21
2017-11-07T10:22:03.129Z,78.02
2017-11-07T10:23:09.695Z,78.00
2017-11-07T10:24:16.434Z,78.20
2017-11-07T10:25:22.333Z,78.47
2017-11-07T10:26:28.530Z,78.53
2017-11-07T10:27:34.419Z,78.37
2017-11-07T10:28:40.294Z,78.49
2017-11-07T10:29:45.723Z,78.65
2017-11-07T10:30:51.502Z,79.22
2017-11-07T10:31:58.200Z,78.88
2017-11-07T10:33:03.981Z,78.82
2017-11-07T10:34:09.728Z,78.86
2017-11-07T10:35:15.332Z,78.84
2017-11-07T10:36:20.950Z,79.00
2017-11-07T10:37:26.990Z,78.86
2017-11-07T10:38:33.177Z,78.70
2017-11-07T10:39:38.993Z,78.59
2017-11-07T10:40:44.740Z,78.57
2017-11-07T10:41:50.516Z,78.50
2017-11-07T10:42:56.371Z,78.37
2017-11-07T10:44:02.141Z,78.44
2017-11-07T10:45:08.704Z,78.37
2017-11-07T10:46:15.269Z,78.37
2017-11-07T10:47:21.802Z,78.40
2017-11-07T10:48:27.585Z,78.46
2017-11-07T10:49:33.167Z,78.44
2017-11-07T10:50:38.982Z,78.54
2017-11-07T10:51:44.805Z,78.44
2017-11-07T10:52:50.585Z,78.42
2017-11-07T10:53:56.477Z,78.25
2017-11-07T10:55:01.959Z,78.26
2017-11-07T10:56:07.281Z,78.08
2017-11-07T10:57:12.393Z,77.99
2017-11-07T10:58:17.985Z,77.82
2017-11-07T10:59:23.954Z,77.84
2017-11-07T11:00:29.534Z,77.71
2017-11-07T11:01:35.422Z,77.80
2017-11-07T11:02:41.525Z,77.75
2017-11-07T11:03:47.330Z,77.73
2017-11-07T11:04:52.760Z,77.52
2017-11-07T11:05:59.835Z,77.45
2017-11-07T11:07:07.227Z,77.45
2017-11-07T11:08:13.772Z,77.43
2017-11-07T11:09:19.537Z,77.35
2017-11-07T11:10:25.918Z,77.61
2017-11-07T11:11:31.756Z,77.65
2017-11-07T11:12:37.549Z,77.63
2017-11-07T11:13:43.227Z,77.62
2017-11-07T11:14:49.765Z,77.65
2017-11-07T11:15:55.720Z,77.64
2017-11-07T11:17:01.513Z,77.60
2017-11-07T11:18:07.306Z,77.44
2017-11-07T11:19:13.882Z,77.49
2017-11-07T11:20:19.926Z,77.63
2017-11-07T11:21:26.537Z,77.32
2017-11-07T11:22:32.293Z,77.43
2017-11-07T11:23:38.089Z,77.49
2017-11-07T11:24:43.910Z,77.62
2017-11-07T11:25:50.473Z,77.67
2017-11-07T11:26:57.062Z,77.55
2017-11-07T11:28:02.872Z,77.37
2017-11-07T11:29:09.768Z,77.16
2017-11-07T11:30:15.561Z,77.08
2017-11-07T11:31:21.555Z,77.12
2017-11-07T11:32:27.240Z,77.14
2017-11-07T11:33:34.101Z,77.27
2017-11-07T11:34:39.900Z,77.25
2017-11-07T11:35:45.670Z,77.19
2017-11-07T11:36:51.429Z,77.39
2017-11-07T11:37:57.224Z,77.38
2017-11-07T11:39:02.984Z,77.79
2017-11-07T11:40:08.752Z,78.09
2017-11-07T11:41:14.508Z,77.96
2017-11-07T11:42:20.321Z,78.32
2017-11-07T11:43:26.099Z,78.11
2017-11-07T11:44:31.863Z,78.63
2017-11-07T11:45:37.922Z,78.65
2017-11-07T11:46:43.741Z,78.96
2017-11-07T11:47:49.600Z,79.01
2017-11-07T11:48:55.660Z,78.79
2017-11-07T11:50:01.594Z,78.57
2017-11-07T11:51:08.272Z,78.33
2017-11-07T11:52:14.124Z,78.27
2017-11-07T11:53:19.912Z,78.07
2017-11-07T11:54:25.453Z,77.83
2017-11-07T11:55:31.293Z,77.80
2017-11-07T11:56:37.069Z,77.71
2017-11-07T11:57:43.782Z,77.72
2017-11-07T11:58:49.380Z,77.43
2017-11-07T11:59:55.224Z,77.42
2017-11-07T12:01:00.650Z,77.57
2017-11-07T12:02:06.582Z,77.64
2017-11-07T12:03:12.777Z,77.48
2017-11-07T12:04:18.594Z,78.00
2017-11-07T12:05:24.373Z,78.56
2017-11-07T12:06:30.181Z,78.17
2017-11-07T12:07:35.944Z,78.07
2017-11-07T12:08:41.848Z,77.97
2017-11-07T12:09:48.650Z,77.89
2017-11-07T12:10:54.794Z,77.92
2017-11-07T12:12:01.142Z,77.82
2017-11-07T12:13:07.089Z,77.70
2017-11-07T12:14:13.143Z,77.77
2017-11-07T12:15:19.654Z,77.70
2017-11-07T12:16:26.425Z,77.41
2017-11-07T12:17:33.295Z,77.09
2017-11-07T12:18:39.218Z,77.14
2017-11-07T12:19:45.000Z,77.74
2017-11-07T12:20:51.525Z,77.71
2017-11-07T12:21:57.419Z,77.72
2017-11-07T12:23:03.177Z,77.82
2017-11-07T12:24:08.934Z,77.78
2017-11-07T12:25:14.693Z,77.87
2017-11-07T12:26:20.297Z,77.78
2017-11-07T12:27:26.097Z,77.91
2017-11-07T12:28:32.858Z,77.99
2017-11-07T12:29:38.795Z,78.15
2017-11-07T12:30:44.782Z,78.35
2017-11-07T12:31:50.727Z,78.50
2017-11-07T12:32:56.728Z,78.34
2017-11-07T12:34:02.801Z,78.25
2017-11-07T12:35:09.490Z,78.58
2017-11-07T12:36:14.919Z,78.68
2017-11-07T12:37:20.741Z,78.94
2017-11-07T12:38:26.724Z,78.67
2017-11-07T12:39:32.962Z,78.93
2017-11-07T12:40:38.914Z,78.91
2017-11-07T12:41:45.682Z,78.81
2017-11-07T12:42:51.624Z,78.97
2017-11-07T12:43:57.393Z,78.90
2017-11-07T12:45:03.378Z,78.80
2017-11-07T12:46:09.324Z,78.98
2017-11-07T12:47:16.139Z,79.09
2017-11-07T12:48:21.966Z,79.09
2017-11-07T12:49:27.921Z,79.01
2017-11-07T12:50:50.357Z,79.03
2017-11-07T12:52:02.700Z,79.69
2017-11-07T12:53:08.817Z,80.10
2017-11-07T12:54:14.317Z,80.23
2017-11-07T12:55:20.901Z,80.57
2017-11-07T12:56:26.698Z,80.32
2017-11-07T12:57:32.687Z,80.19
2017-11-07T12:58:38.476Z,80.27
2017-11-07T12:59:44.455Z,79.69
2017-11-07T13:00:50.637Z,79.71
2017-11-07T13:01:56.663Z,79.62
2017-11-07T13:03:03.561Z,79.49
2017-11-07T13:04:09.542Z,79.50
2017-11-07T13:05:16.407Z,79.69
2017-11-07T13:06:22.350Z,79.59
2017-11-07T13:07:28.180Z,79.72
2017-11-07T13:08:34.107Z,79.70
2017-11-07T13:09:40.120Z,79.97
2017-11-07T13:10:46.807Z,80.26
2017-11-07T13:11:52.961Z,80.45
2017-11-07T13:12:59.013Z,80.93
2017-11-07T13:14:05.057Z,81.18
2017-11-07T13:15:11.822Z,80.93
2017-11-07T13:16:17.820Z,80.34
2017-11-07T13:17:24.738Z,79.97
2017-11-07T13:18:30.790Z,79.94
2017-11-07T13:19:36.937Z,79.89
2017-11-07T13:20:42.530Z,79.79
2017-11-07T13:21:48.435Z,79.75
2017-11-07T13:22:54.472Z,79.82
2017-11-07T13:24:00.622Z,79.69
2017-11-07T13:25:06.745Z,79.78
2017-11-07T13:26:13.655Z,79.96
2017-11-07T13:27:19.644Z,80.31
2017-11-07T13:28:26.655Z,80.45
2017-11-07T13:29:32.472Z,80.18
2017-11-07T13:30:38.249Z,79.78
2017-11-07T13:31:44.009Z,80.00
2017-11-07T13:32:49.782Z,80.20
2017-11-07T13:33:55.567Z,80.37
2017-11-07T13:35:01.802Z,80.20
2017-11-07T13:36:08.466Z,80.02
2017-11-07T13:37:15.265Z,80.56
2017-11-07T13:38:21.394Z,80.81
2017-11-07T13:40:53.878Z,80.63
2017-11-07T13:42:00.746Z,80.66
2017-11-07T13:43:06.646Z,81.09
2017-11-07T13:44:13.454Z,81.23
2017-11-07T13:45:19.601Z,80.97
2017-11-07T13:46:25.755Z,80.89
2017-11-07T13:47:31.787Z,80.66
2017-11-07T13:48:37.859Z,80.58
2017-11-07T13:49:43.827Z,80.90
2017-11-07T13:50:50.568Z,80.89
2017-11-07T13:51:56.711Z,81.29
2017-11-07T13:53:02.761Z,81.25
2017-11-07T13:54:08.778Z,81.19
2017-11-07T13:55:15.507Z,81.07
2017-11-07T13:56:21.405Z,81.03
2017-11-07T13:57:27.565Z,80.93
2017-11-07T13:58:33.350Z,80.84
2017-11-07T13:59:39.304Z,80.33
2017-11-07T14:00:45.136Z,80.51
2017-11-07T14:01:50.968Z,80.39
2017-11-07T14:02:56.753Z,80.04
2017-11-07T14:04:02.557Z,80.79
2017-11-07T14:05:08.400Z,80.96
2017-11-07T14:06:14.166Z,80.61
2017-11-07T14:07:21.000Z,80.52
2017-11-07T14:08:26.825Z,80.41
2017-11-07T14:09:32.831Z,80.24
2017-11-07T14:10:38.814Z,80.33
2017-11-07T14:11:44.615Z,80.79